Pagrindinis puslapis
METAR-TAF:

METAR-TAF

Oro uostai :

Zaporožė, Ukraina

platuma: 47-52-02N, ilguma: 035-18-59E, Aukštis: 114 m

Dabartinis oras

Ataskaita buvo paskelbta 14 minutes, ne 10:30 UTC
Vėjas 2 kt nuo kintamojo kryptimis
Temperatūra 11°C
Drėgmė 47%
Slėgis 1026 hPa
Matomumas 10 km arba daugiau
nėra debesų žemiau 1500 m ir nėra kamuolinių lietaus debesų

METAR: UKDE 271030Z VRB01MPS CAVOK 11/M00 Q1026 R20/090070 NOSIG

Laikas: 13:44 (10:44 UTC)

Prognozė

Ataskaita buvo paskelbta 2 valandos ir 41 minutes, ne 08:03 UTC
Prognozė galioja nuo 27 metu 09 UTC su 27 metu 18 UTC
Vėjas 6 kt iš Pietų
Matomumas 10 km arba daugiau
nėra debesų žemiau 1500 m ir nėra kamuolinių lietaus debesų

TAF: UKDE 270803Z 2709/2718 18003MPS CAVOK TX10/2712Z TN02/2718Z

Orai ataskaitas ir orų prognozės (METAR, TAF).

turimą stotys yra geltonos ir raudonos taškus žemėlapyje.

Perkelti pele per norėdami pamatyti stoties vardą.

Tada spustelėkite, norėdami matyti oro stebėjimo ir prognozės.

Norėdami pakeisti žemėlapį: spustelėkite ant žalios mygtukų su juodo kryžiaus žemyn,; žalią mygtuką su brūkšneliu, jei norite nutolinti; arba žalių rodyklių gretimoms žemėlapius.


METAR-TAF: